Time;durP1;ratioP1;P1;durP2;ratioP2;P2;SDS_P1;SDS_P2;PMS_P1;PMS_P2;Temp;Humidity;BMP_temperature;BMP_pressure;BME280_temperature;BME280_humidity;BME280_pressure;Samples;Min_cycle;Max_cycle;Signal;HPM_P1;HPM_P2
2022/12/17 13:08:18;;;;;;;13.93;10.67;;;1.30;99.90;;;;;;5022398;28;20537;-67
2022/12/17 13:10:46;;;;;;;11.80;8.83;;;0.90;99.90;;;;;;5019213;28;20463;-66
2022/12/17 13:13:24;;;;;;;12.57;9.50;;;0.40;99.90;;;;;;5028297;28;20463;-66
2022/12/17 13:15:56;;;;;;;12.30;9.20;;;0.40;99.90;;;;;;5023986;28;20467;-66
2022/12/17 13:18:30;;;;;;;13.53;9.03;;;0.40;99.90;;;;;;5026549;28;20527;-66
2022/12/17 13:21:01;;;;;;;13.30;8.83;;;0.20;99.90;;;;;;5022718;28;20502;-66
2022/12/17 13:23:32;;;;;;;14.33;9.03;;;0.20;99.90;;;;;;5024761;28;20912;-66
2022/12/17 13:26:22;;;;;;;12.27;8.40;;;-0.10;99.90;;;;;;5019534;28;20513;-66
2022/12/17 13:29:02;;;;;;;13.30;9.23;;;-0.20;99.90;;;;;;5017167;28;20470;-66
2022/12/17 13:31:41;;;;;;;12.93;8.53;;;-0.20;99.90;;;;;;5019201;28;20518;-66
2022/12/17 13:34:16;;;;;;;12.60;8.10;;;-0.30;99.90;;;;;;5024244;28;20907;-66
2022/12/17 13:36:52;;;;;;;12.90;8.77;;;-0.40;99.90;;;;;;5016597;28;20914;-66
2022/12/17 13:39:35;;;;;;;13.93;9.43;;;-0.40;99.90;;;;;;5018943;28;20501;-65
2022/12/17 13:42:04;;;;;;;13.20;9.50;;;-0.50;99.90;;;;;;5017325;28;20585;-65
2022/12/17 13:44:38;;;;;;;12.53;8.77;;;-0.50;99.90;;;;;;5017176;28;20472;-65
2022/12/17 13:47:06;;;;;;;14.07;8.83;;;-0.60;99.90;;;;;;5017355;28;20516;-65
2022/12/17 13:49:33;;;;;;;12.57;8.97;;;-0.60;99.90;;;;;;5017835;28;20503;-65
2022/12/17 13:52:03;;;;;;;14.67;10.70;;;-0.60;99.90;;;;;;5017454;28;20471;-65
2022/12/17 13:54:31;;;;;;;15.20;9.60;;;-0.70;99.90;;;;;;5017887;28;20567;-65
2022/12/17 13:57:08;;;;;;;12.93;8.83;;;-0.70;99.90;;;;;;5017997;28;20466;-65
2022/12/17 13:59:36;;;;;;;14.77;9.57;;;-0.80;99.90;;;;;;5018170;28;20473;-65
2022/12/17 14:02:06;;;;;;;17.17;10.80;;;-0.80;99.90;;;;;;5017701;28;20465;-66
2022/12/17 14:04:33;;;;;;;16.00;10.87;;;-0.90;99.90;;;;;;5017698;28;20493;-65
2022/12/17 14:07:05;;;;;;;15.00;9.50;;;-0.90;99.90;;;;;;5017857;28;20492;-66
2022/12/17 14:09:35;;;;;;;18.37;10.87;;;-0.90;99.90;;;;;;5017622;28;20472;-65
2022/12/17 14:12:22;;;;;;;15.57;9.90;;;-0.90;99.90;;;;;;5017688;28;20503;-65
2022/12/17 14:14:54;;;;;;;16.53;10.13;;;-1.00;99.90;;;;;;5018092;28;20554;-66
2022/12/17 14:17:24;;;;;;;14.30;10.47;;;-1.00;99.90;;;;;;5018058;28;20462;-66
2022/12/17 14:19:58;;;;;;;12.80;9.23;;;-1.00;99.90;;;;;;5017560;28;20557;-66
2022/12/17 14:22:33;;;;;;;14.90;10.57;;;-1.00;99.90;;;;;;5017682;28;20948;-65
2022/12/17 14:25:01;;;;;;;13.50;10.07;;;-1.20;99.90;;;;;;5018077;28;20464;-65
2022/12/17 14:27:33;;;;;;;14.23;9.60;;;-1.20;99.90;;;;;;5017767;28;20984;-65
2022/12/17 14:30:01;;;;;;;15.77;10.87;;;-1.10;99.90;;;;;;5016424;28;20514;-65
2022/12/17 14:32:33;;;;;;;15.17;9.00;;;-1.20;99.90;;;;;;5017552;28;20500;-65
2022/12/17 14:35:01;;;;;;;17.33;9.80;;;-1.30;99.90;;;;;;5017692;28;20494;-64
2022/12/17 14:37:31;;;;;;;16.37;10.53;;;-1.40;99.90;;;;;;5017623;28;20459;-64
2022/12/17 14:40:02;;;;;;;13.30;9.57;;;-1.50;99.90;;;;;;5020179;28;20518;-64
2022/12/17 14:42:31;;;;;;;16.90;10.27;;;-1.50;99.90;;;;;;5017660;28;20956;-64
2022/12/17 14:45:00;;;;;;;20.07;13.23;;;-1.60;99.90;;;;;;5017560;28;20471;-64
2022/12/17 14:47:29;;;;;;;21.37;13.20;;;-1.60;99.90;;;;;;5017732;28;20496;-64
2022/12/17 14:50:01;;;;;;;23.50;14.03;;;-1.60;99.90;;;;;;5017583;28;20464;-64
2022/12/17 14:52:38;;;;;;;17.87;11.90;;;-1.70;99.90;;;;;;5017213;28;20471;-64
2022/12/17 14:55:26;;;;;;;18.80;10.67;;;-1.80;99.90;;;;;;5020285;28;20913;-64
2022/12/17 14:57:54;;;;;;;17.93;11.53;;;-1.80;99.90;;;;;;5017057;28;20463;-64
2022/12/17 15:00:21;;;;;;;18.73;12.00;;;-1.80;99.90;;;;;;5017231;28;20460;-64
2022/12/17 15:02:52;;;;;;;19.53;12.40;;;-1.90;99.90;;;;;;5018499;28;20499;-64
2022/12/17 15:05:19;;;;;;;18.53;12.90;;;-1.90;99.90;;;;;;5021076;28;20487;-63
2022/12/17 15:07:48;;;;;;;19.63;13.10;;;-2.00;99.90;;;;;;5020046;28;20546;-63
2022/12/17 15:10:20;;;;;;;14.50;11.10;;;-2.00;99.90;;;;;;5020302;28;20562;-63
2022/12/17 15:12:50;;;;;;;16.63;12.37;;;-2.00;99.90;;;;;;5020480;28;20543;-63
2022/12/17 15:15:19;;;;;;;18.90;13.37;;;-2.10;99.90;;;;;;5020633;28;20468;-62
2022/12/17 15:17:47;;;;;;;17.37;13.37;;;-2.00;99.90;;;;;;5020808;28;20475;-63
2022/12/17 15:20:17;;;;;;;21.27;10.90;;;-2.10;99.90;;;;;;5020754;28;20482;-63
2022/12/17 15:22:45;;;;;;;16.50;10.50;;;-2.20;99.90;;;;;;5020973;28;20885;-63
2022/12/17 15:25:15;;;;;;;17.60;11.63;;;-2.30;99.90;;;;;;5021081;28;20477;-63
2022/12/17 15:27:42;;;;;;;15.37;11.10;;;-2.20;99.90;;;;;;5019751;28;20470;-63
2022/12/17 15:30:14;;;;;;;12.53;10.50;;;-2.30;99.90;;;;;;5019156;28;20460;-63
2022/12/17 15:32:41;;;;;;;16.77;11.80;;;-2.30;99.90;;;;;;5019799;28;20452;-63
2022/12/17 15:35:10;;;;;;;16.10;10.40;;;-2.30;99.90;;;;;;5020206;28;20464;-63
2022/12/17 15:37:37;;;;;;;21.63;15.77;;;-2.40;99.90;;;;;;5019918;28;20873;-61
2022/12/17 15:40:05;;;;;;;20.87;13.27;;;-2.40;99.90;;;;;;5019621;28;20464;-63
2022/12/17 15:45:18;;;;;;;22.23;14.53;;;-2.50;99.90;;;;;;5020345;28;20446;-63
2022/12/17 15:47:45;;;;;;;23.90;15.53;;;-2.50;99.90;;;;;;5019897;28;20496;-62
2022/12/17 15:50:12;;;;;;;26.00;16.87;;;-2.60;99.90;;;;;;5020283;28;20861;-63
2022/12/17 15:52:39;;;;;;;23.50;13.93;;;-2.80;99.90;;;;;;5019722;28;20566;-64
2022/12/17 15:55:07;;;;;;;17.20;11.47;;;-2.80;99.90;;;;;;5019659;28;20763;-64
2022/12/17 15:57:36;;;;;;;18.30;11.90;;;-2.90;99.90;;;;;;5019049;28;20543;-63
2022/12/17 16:00:05;;;;;;;24.40;16.33;;;-3.00;99.90;;;;;;5027316;28;20862;-63
2022/12/17 16:02:32;;;;;;;25.30;18.47;;;-3.00;99.90;;;;;;5039192;28;20459;-63
2022/12/17 16:04:59;;;;;;;30.10;23.00;;;-2.90;99.90;;;;;;5037982;28;20589;-63
2022/12/17 16:07:27;;;;;;;26.67;18.40;;;-2.90;99.90;;;;;;5039646;28;21022;-64
2022/12/17 16:09:54;;;;;;;25.07;18.90;;;-3.00;99.90;;;;;;5038390;28;20494;-64
2022/12/17 16:12:21;;;;;;;39.70;24.60;;;-3.00;99.90;;;;;;5039851;28;20467;-64
2022/12/17 16:14:50;;;;;;;27.03;16.50;;;-3.00;99.90;;;;;;5038641;28;20779;-64
2022/12/17 16:17:17;;;;;;;145.13;78.07;;;-3.00;99.90;;;;;;5037959;28;20489;-63
2022/12/17 16:19:44;;;;;;;149.07;83.33;;;-3.00;99.90;;;;;;5037781;28;20470;-63
2022/12/17 16:22:11;;;;;;;58.10;33.10;;;-3.00;99.90;;;;;;5038156;28;20468;-63
2022/12/17 16:24:39;;;;;;;28.70;18.40;;;-3.00;99.90;;;;;;5038109;28;20455;-63
2022/12/17 16:27:07;;;;;;;20.70;14.67;;;-3.00;99.90;;;;;;5038081;28;20490;-63
2022/12/17 16:29:34;;;;;;;20.13;14.60;;;-3.10;99.90;;;;;;5036067;28;20471;-63
2022/12/17 16:32:03;;;;;;;22.87;15.13;;;-3.10;99.90;;;;;;5035766;28;20489;-63
2022/12/17 16:34:30;;;;;;;21.07;15.70;;;-3.10;99.90;;;;;;5039581;28;20476;-63
2022/12/17 16:36:58;;;;;;;21.63;12.47;;;-3.20;99.90;;;;;;5037674;28;20467;-63
2022/12/17 16:39:25;;;;;;;16.90;11.90;;;-3.30;99.90;;;;;;5055109;28;20462;-63
2022/12/17 16:41:52;;;;;;;20.13;15.40;;;-3.40;99.90;;;;;;5059783;28;20470;-63
2022/12/17 16:44:19;;;;;;;21.10;12.33;;;-3.40;99.90;;;;;;5059588;28;20493;-63
2022/12/17 16:46:47;;;;;;;20.53;13.87;;;-3.50;99.90;;;;;;5059046;28;20511;-63
2022/12/17 16:49:17;;;;;;;17.30;12.30;;;-3.40;99.90;;;;;;5059676;28;20651;-63
2022/12/17 16:51:45;;;;;;;16.87;11.30;;;-3.40;99.90;;;;;;5059114;28;20563;-63
2022/12/17 16:54:14;;;;;;;23.30;13.20;;;-3.40;99.90;;;;;;5059502;28;20490;-63
2022/12/17 16:56:42;;;;;;;18.27;12.03;;;-3.40;99.90;;;;;;5059891;28;20462;-63
2022/12/17 16:59:10;;;;;;;17.40;11.43;;;-3.40;99.90;;;;;;5059172;28;20500;-63
2022/12/17 17:01:39;;;;;;;23.27;13.20;;;-3.50;99.90;;;;;;5059382;28;20913;-63
2022/12/17 17:04:08;;;;;;;19.20;11.93;;;-3.50;99.90;;;;;;5059356;28;20462;-63
2022/12/17 17:06:40;;;;;;;18.30;12.83;;;-3.60;99.90;;;;;;5059410;28;20581;-63
2022/12/17 17:09:08;;;;;;;16.10;11.13;;;-3.60;99.90;;;;;;5051303;28;20478;-63
2022/12/17 17:11:36;;;;;;;19.10;12.03;;;-3.60;99.90;;;;;;5035365;28;20822;-63
2022/12/17 17:14:03;;;;;;;18.43;12.67;;;-3.50;99.90;;;;;;5019930;28;20518;-63
2022/12/17 17:16:32;;;;;;;17.80;12.57;;;-3.50;99.90;;;;;;5019490;28;20513;-63
2022/12/17 17:19:00;;;;;;;20.40;12.73;;;-3.50;99.90;;;;;;5019199;28;20467;-63
2022/12/17 17:21:30;;;;;;;18.47;13.50;;;-3.50;99.90;;;;;;5018587;28;20767;-63
2022/12/17 17:24:00;;;;;;;18.50;13.13;;;-3.50;99.90;;;;;;5017388;28;20496;-63
2022/12/17 17:26:30;;;;;;;16.53;11.70;;;-3.60;99.90;;;;;;5019008;28;20862;-63
2022/12/17 17:28:58;;;;;;;19.80;12.80;;;-3.50;99.90;;;;;;5019514;28;20872;-63
2022/12/17 17:31:26;;;;;;;15.50;10.87;;;-3.60;99.90;;;;;;5019927;28;20586;-63
2022/12/17 17:33:53;;;;;;;16.33;11.57;;;-3.60;99.90;;;;;;5019674;28;20768;-63
2022/12/17 17:36:23;;;;;;;17.17;12.53;;;-3.60;99.90;;;;;;5020005;28;20468;-63
2022/12/17 17:38:56;;;;;;;18.90;12.87;;;-3.60;99.90;;;;;;5020330;28;20541;-63
2022/12/17 17:41:26;;;;;;;16.03;10.40;;;-3.70;99.90;;;;;;5018775;28;20477;-63
2022/12/17 17:43:54;;;;;;;21.67;15.80;;;-3.80;99.90;;;;;;5019279;28;20471;-63
2022/12/17 17:46:22;;;;;;;18.57;14.17;;;-3.90;99.90;;;;;;5019323;28;20859;-63
2022/12/17 17:48:50;;;;;;;22.60;14.63;;;-3.80;99.90;;;;;;5019464;28;20563;-62
2022/12/17 17:51:19;;;;;;;18.50;13.23;;;-3.80;99.90;;;;;;5019908;28;20554;-63
2022/12/17 17:53:48;;;;;;;28.43;17.10;;;-3.80;99.90;;;;;;5019019;28;20935;-63
2022/12/17 17:56:17;;;;;;;18.10;14.43;;;-4.00;99.90;;;;;;5019027;28;20766;-63
2022/12/17 17:58:48;;;;;;;24.83;15.20;;;-4.10;99.90;;;;;;5019308;28;20464;-63
2022/12/17 18:01:18;;;;;;;21.57;13.83;;;-4.10;99.90;;;;;;5019694;28;20964;-63
2022/12/17 18:03:45;;;;;;;16.00;12.40;;;-4.20;99.90;;;;;;5019524;28;20471;-63
2022/12/17 18:06:13;;;;;;;18.70;13.87;;;-4.30;99.90;;;;;;5019029;28;20500;-63
2022/12/17 18:08:41;;;;;;;18.87;13.40;;;-4.30;1.00;;;;;;5019223;28;20929;-62
2022/12/17 18:11:14;;;;;;;21.13;14.90;;;-4.30;1.00;;;;;;5019352;28;20493;-63
2022/12/17 18:13:55;;;;;;;21.67;16.10;;;-4.30;1.00;;;;;;5018874;28;20594;-63
2022/12/17 18:16:27;;;;;;;23.87;18.73;;;-4.20;1.00;;;;;;5018824;28;20497;-63
2022/12/17 18:18:55;;;;;;;22.00;13.97;;;-4.10;1.00;;;;;;5018656;28;20467;-63
2022/12/17 18:21:23;;;;;;;18.20;12.47;;;-4.30;1.00;;;;;;5019306;28;20489;-63
2022/12/17 18:23:55;;;;;;;22.90;12.60;;;-4.30;1.00;;;;;;5019748;28;20462;-62
2022/12/17 18:26:24;;;;;;;19.15;12.00;;;-4.20;1.00;;;;;;5018807;28;20466;-63
2022/12/17 18:28:51;;;;;;;20.90;12.13;;;-4.20;1.00;;;;;;5019128;28;20478;-63
2022/12/17 18:31:21;;;;;;;22.53;14.40;;;-4.10;1.00;;;;;;5018484;28;20477;-63
2022/12/17 18:33:51;;;;;;;18.53;12.53;;;-4.20;1.00;;;;;;5018288;28;20476;-63
2022/12/17 18:36:22;;;;;;;17.70;12.70;;;-4.20;1.00;;;;;;5018000;28;20912;-63
2022/12/17 18:38:55;;;;;;;17.80;10.87;;;-4.20;1.00;;;;;;5023739;28;20766;-63
2022/12/17 18:44:07;;;;;;;20.70;13.73;;;-4.10;1.00;;;;;;5023690;28;20490;-63
2022/12/17 18:46:35;;;;;;;17.53;11.90;;;-4.10;1.00;;;;;;5023827;28;20489;-60
2022/12/17 18:49:07;;;;;;;19.60;13.60;;;-4.00;1.00;;;;;;5027529;28;20458;-63
2022/12/17 18:51:36;;;;;;;17.87;12.00;;;-4.00;1.00;;;;;;5044336;28;20544;-63
2022/12/17 18:54:05;;;;;;;19.57;11.50;;;-3.90;1.00;;;;;;5039705;28;20462;-63
2022/12/17 18:56:34;;;;;;;20.87;13.20;;;-4.00;1.00;;;;;;5043951;28;20477;-63
2022/12/17 18:59:01;;;;;;;14.90;11.07;;;-4.00;1.00;;;;;;5043630;28;20573;-63
2022/12/17 19:01:30;;;;;;;18.57;12.37;;;-4.00;1.00;;;;;;5043588;28;20519;-63
2022/12/17 19:03:58;;;;;;;17.80;12.57;;;-4.00;1.00;;;;;;5043599;28;20814;-59
2022/12/17 19:06:26;;;;;;;16.40;11.20;;;-4.00;1.00;;;;;;5043719;28;20898;-60
2022/12/17 19:08:54;;;;;;;20.23;12.13;;;-4.10;1.00;;;;;;5043577;28;20887;-62
2022/12/17 19:11:22;;;;;;;19.20;10.93;;;-4.00;1.00;;;;;;5044111;28;20475;-63
2022/12/17 19:13:50;;;;;;;16.73;11.53;;;-3.90;1.00;;;;;;5043899;28;20465;-61
2022/12/17 19:16:20;;;;;;;16.60;13.03;;;-4.00;1.00;;;;;;5043399;28;20909;-63
2022/12/17 19:18:53;;;;;;;18.93;11.97;;;-4.00;1.00;;;;;;5042502;28;20456;-62
2022/12/17 19:21:21;;;;;;;20.93;13.13;;;-4.10;1.00;;;;;;5049752;28;20461;-62
2022/12/17 19:23:50;;;;;;;16.67;11.07;;;-4.00;1.00;;;;;;5063643;28;20468;-61
2022/12/17 19:26:20;;;;;;;58.27;27.30;;;-3.90;1.00;;;;;;5063359;28;20563;-62
2022/12/17 19:28:49;;;;;;;41.17;22.80;;;-3.80;1.00;;;;;;5062852;28;20501;-63
2022/12/17 19:31:17;;;;;;;55.90;26.07;;;-3.80;1.00;;;;;;5061357;28;20461;-61
2022/12/17 19:33:45;;;;;;;37.80;17.83;;;-3.80;1.00;;;;;;5061867;28;20464;-59
2022/12/17 19:36:14;;;;;;;15.40;10.47;;;-3.90;1.00;;;;;;5061655;28;20496;-63
2022/12/17 19:38:42;;;;;;;18.47;12.67;;;-3.90;1.00;;;;;;5062155;28;20740;-60
2022/12/17 19:41:13;;;;;;;16.90;11.30;;;-3.80;1.00;;;;;;5061111;28;20469;-58
2022/12/17 19:43:41;;;;;;;13.50;9.60;;;-4.00;1.00;;;;;;5060850;28;20462;-62
2022/12/17 19:46:10;;;;;;;17.10;9.80;;;-4.00;1.00;;;;;;5062196;28;20461;-63
2022/12/17 19:48:39;;;;;;;13.70;8.97;;;-4.00;1.00;;;;;;5059813;28;20588;-63
2022/12/17 19:51:07;;;;;;;17.00;12.57;;;-3.90;1.00;;;;;;5059300;28;20461;-59
2022/12/17 19:53:36;;;;;;;16.70;10.53;;;-3.90;1.00;;;;;;5059020;28;20480;-62
2022/12/17 19:56:12;;;;;;;15.27;10.93;;;-3.80;1.00;;;;;;5059096;28;20488;-63
2022/12/17 19:58:40;;;;;;;15.13;11.20;;;-3.80;1.00;;;;;;5059182;28;20556;-63
2022/12/17 20:01:09;;;;;;;27.67;20.40;;;-3.80;1.00;;;;;;5058677;28;20883;-60
2022/12/17 20:03:38;;;;;;;13.17;11.10;;;-3.80;1.00;;;;;;5058396;28;20500;-61
2022/12/17 20:06:06;;;;;;;17.00;13.03;;;-3.90;1.00;;;;;;5057698;28;20822;-62
2022/12/17 20:08:34;;;;;;;20.53;12.90;;;-4.00;1.00;;;;;;5058016;28;20808;-63
2022/12/17 20:11:31;;;;;;;16.37;13.43;;;-4.10;1.00;;;;;;5058599;28;20948;-62
2022/12/17 20:13:54;;;;;;;14.83;10.00;;;-4.10;1.00;;;;;;5044207;28;20459;-63
2022/12/17 20:16:22;;;;;;;13.10;9.50;;;-4.00;1.00;;;;;;5038441;28;20472;-62
2022/12/17 20:18:49;;;;;;;13.53;8.73;;;-4.00;1.00;;;;;;5029154;28;20463;-63
2022/12/17 20:21:17;;;;;;;14.70;10.50;;;-3.90;1.00;;;;;;5020049;28;20569;-61
2022/12/17 20:23:46;;;;;;;11.80;9.30;;;-3.90;1.00;;;;;;5023472;28;20463;-64
2022/12/17 20:26:14;;;;;;;11.10;7.90;;;-3.70;1.00;;;;;;5019975;28;20460;-63
2022/12/17 20:28:41;;;;;;;14.77;9.30;;;-3.40;1.00;;;;;;5018346;28;20504;-64
2022/12/17 20:31:10;;;;;;;14.70;9.67;;;-3.10;1.00;;;;;;5017987;28;20478;-64
2022/12/17 20:33:37;;;;;;;12.37;8.53;;;-3.00;1.00;;;;;;5019286;28;20522;-64
2022/12/17 20:36:05;;;;;;;11.30;7.43;;;-3.00;99.90;;;;;;5017660;28;20467;-61
2022/12/17 20:38:32;;;;;;;14.20;7.57;;;-2.90;99.90;;;;;;5018743;28;20474;-62
2022/12/17 20:41:00;;;;;;;13.53;8.30;;;-2.90;99.90;;;;;;5019663;28;20558;-63
2022/12/17 20:43:30;;;;;;;10.60;7.20;;;-3.10;99.90;;;;;;5026032;28;20436;-61
2022/12/17 20:45:57;;;;;;;11.47;6.90;;;-3.30;99.90;;;;;;5027616;28;20469;-62
2022/12/17 20:48:26;;;;;;;13.10;8.30;;;-3.30;99.90;;;;;;5019568;28;20491;-63
2022/12/17 20:50:54;;;;;;;10.07;7.63;;;-3.30;99.90;;;;;;5019802;28;20517;-63
2022/12/17 20:53:21;;;;;;;12.50;8.03;;;-3.40;99.90;;;;;;5030063;28;20481;-62
2022/12/17 20:55:58;;;;;;;12.33;8.57;;;-3.40;99.90;;;;;;5030454;28;20537;-63
2022/12/17 20:58:25;;;;;;;18.03;8.83;;;-3.50;99.90;;;;;;5022130;28;20908;-62
2022/12/17 21:00:53;;;;;;;13.80;8.60;;;-3.60;99.90;;;;;;5025289;28;20494;-63
2022/12/17 21:03:20;;;;;;;12.83;8.63;;;-3.70;99.90;;;;;;5027797;28;20981;-62
2022/12/17 21:05:49;;;;;;;17.90;10.23;;;-3.60;99.90;;;;;;5025757;28;21130;-62
2022/12/17 21:08:16;;;;;;;9.73;7.27;;;-3.80;99.90;;;;;;5026606;28;20523;-62
2022/12/17 21:10:47;;;;;;;10.63;7.67;;;-3.80;99.90;;;;;;5018862;28;20550;-62
2022/12/17 21:13:30;;;;;;;10.77;7.13;;;-3.80;99.90;;;;;;5027741;28;20498;-62
2022/12/17 21:15:58;;;;;;;12.80;7.23;;;-3.80;99.90;;;;;;5014854;28;20470;-62
2022/12/17 21:18:26;;;;;;;11.30;7.20;;;-3.80;99.90;;;;;;5024348;28;20861;-62
2022/12/17 21:20:59;;;;;;;13.30;7.43;;;-3.80;99.90;;;;;;5024898;28;20473;-62
2022/12/17 21:23:27;;;;;;;13.00;7.13;;;-3.80;99.90;;;;;;5022241;28;20470;-62
2022/12/17 21:26:01;;;;;;;13.23;9.80;;;-4.00;99.90;;;;;;5024634;28;20839;-61
2022/12/17 21:28:29;;;;;;;27.73;14.37;;;-4.00;99.90;;;;;;5025307;28;20494;-63
2022/12/17 21:30:56;;;;;;;14.47;9.40;;;-3.90;99.90;;;;;;5025976;28;20554;-62
2022/12/17 21:33:24;;;;;;;36.20;31.43;;;-4.00;99.90;;;;;;5018036;28;20513;-63
2022/12/17 21:35:59;;;;;;;21.00;16.00;;;-4.10;99.90;;;;;;5026059;28;20459;-63
2022/12/17 21:38:26;;;;;;;26.20;19.80;;;-4.00;99.90;;;;;;5019197;28;20472;-61
2022/12/17 21:40:54;;;;;;;15.17;6.97;;;-3.90;99.90;;;;;;5025197;28;20903;-63
2022/12/17 21:43:23;;;;;;;17.80;12.30;;;-3.90;99.90;;;;;;5034440;28;20505;-56
2022/12/17 21:45:56;;;;;;;14.07;11.10;;;-3.90;99.90;;;;;;5024407;28;20916;-62
2022/12/17 21:48:23;;;;;;;9.93;7.43;;;-3.90;99.90;;;;;;5027544;28;20493;-62
2022/12/17 21:50:50;;;;;;;11.00;7.13;;;-3.90;99.90;;;;;;5026426;28;20452;-62
2022/12/17 21:53:19;;;;;;;16.10;8.80;;;-3.90;99.90;;;;;;5027175;28;20911;-62
2022/12/17 21:55:47;;;;;;;14.33;7.97;;;-3.90;99.90;;;;;;5033320;28;20545;-63
2022/12/17 21:58:15;;;;;;;9.27;6.73;;;-3.90;99.90;;;;;;5037951;28;20462;-63
2022/12/17 22:00:42;;;;;;;12.63;7.50;;;-3.90;99.90;;;;;;5023110;28;20463;-63
2022/12/17 22:03:10;;;;;;;12.40;8.50;;;-4.10;99.90;;;;;;5024597;28;20469;-62
2022/12/17 22:05:37;;;;;;;15.30;10.23;;;-4.20;99.90;;;;;;5028971;28;20508;-62
2022/12/17 22:08:05;;;;;;;19.37;13.53;;;-4.20;99.90;;;;;;5028378;28;20527;-62
2022/12/17 22:10:34;;;;;;;12.83;8.10;;;-4.20;99.90;;;;;;5025201;28;20459;-62
2022/12/17 22:15:48;;;;;;;13.97;9.60;;;-4.30;99.90;;;;;;5002135;28;20472;-62
2022/12/17 22:18:15;;;;;;;15.77;10.77;;;-4.30;99.90;;;;;;5028616;28;20444;-62
2022/12/17 22:20:42;;;;;;;46.20;28.40;;;-4.40;99.90;;;;;;5025980;28;20553;-62
2022/12/17 22:23:09;;;;;;;39.77;24.27;;;-4.30;1.00;;;;;;5026210;28;20459;-62
2022/12/17 22:25:38;;;;;;;25.50;16.83;;;-4.10;1.00;;;;;;5027718;28;20564;-63
2022/12/17 22:28:06;;;;;;;11.53;7.87;;;-4.20;99.90;;;;;;5026791;28;20927;-62
2022/12/17 22:33:17;;;;;;;19.47;12.50;;;-4.10;99.90;;;;;;5026317;28;20800;-62
2022/12/17 22:35:45;;;;;;;16.53;11.00;;;-4.20;99.90;;;;;;5025244;28;20472;-62
2022/12/17 22:38:12;;;;;;;11.60;8.70;;;-4.10;99.90;;;;;;5024954;28;20455;-63
2022/12/17 22:40:41;;;;;;;14.90;9.00;;;-4.20;99.90;;;;;;5026807;28;20465;-62
2022/12/17 22:45:59;;;;;;;11.47;7.87;;;-4.10;99.90;;;;;;5024573;28;20515;-63
2022/12/17 22:48:26;;;;;;;12.93;7.70;;;-4.10;99.90;;;;;;5024525;28;20502;-62
2022/12/17 22:50:53;;;;;;;13.80;8.87;;;-4.10;99.90;;;;;;5024800;28;20821;-63
2022/12/17 22:53:21;;;;;;;15.13;10.10;;;-4.00;99.90;;;;;;5026597;28;20764;-62
2022/12/17 22:55:50;;;;;;;16.13;10.97;;;-4.00;99.90;;;;;;5024928;28;20473;-62
2022/12/17 22:58:18;;;;;;;19.60;12.70;;;-4.10;99.90;;;;;;5017224;28;20473;-63
2022/12/17 23:00:45;;;;;;;13.70;10.40;;;-4.10;99.90;;;;;;5016991;28;20466;-62
2022/12/17 23:03:13;;;;;;;12.57;8.40;;;-4.20;99.90;;;;;;5017705;28;20471;-63
2022/12/17 23:05:40;;;;;;;13.23;8.90;;;-4.30;99.90;;;;;;5017384;28;20513;-62
2022/12/17 23:08:07;;;;;;;8.10;5.53;;;-4.30;99.90;;;;;;5017090;28;20938;-59
2022/12/17 23:10:34;;;;;;;8.57;5.83;;;-4.30;99.90;;;;;;5017074;28;20566;-63
2022/12/17 23:13:03;;;;;;;17.67;10.60;;;-4.40;99.90;;;;;;5017002;28;20492;-63
2022/12/17 23:15:33;;;;;;;31.83;26.10;;;-4.50;99.90;;;;;;5030848;28;20554;-62
2022/12/17 23:18:02;;;;;;;18.10;16.20;;;-4.40;99.90;;;;;;5016537;28;20567;-63
2022/12/17 23:20:32;;;;;;;8.27;6.70;;;-4.30;99.90;;;;;;5017229;28;20462;-62
2022/12/17 23:22:59;;;;;;;10.30;6.37;;;-4.30;99.90;;;;;;5026180;28;20858;-62
2022/12/17 23:25:28;;;;;;;10.50;6.03;;;-4.40;99.90;;;;;;5020817;28;20470;-63
2022/12/17 23:27:55;;;;;;;9.47;5.70;;;-4.40;99.90;;;;;;5035307;28;20465;-63
2022/12/17 23:30:24;;;;;;;8.70;5.80;;;-4.30;1.00;;;;;;5039739;28;20470;-63
2022/12/17 23:32:51;;;;;;;8.43;5.60;;;-4.10;1.00;;;;;;5040635;28;20498;-60
2022/12/17 23:35:18;;;;;;;10.40;6.60;;;-4.10;99.90;;;;;;5032326;28;20466;-63
2022/12/17 23:37:46;;;;;;;9.20;6.80;;;-4.10;99.90;;;;;;5020311;28;20469;-61
2022/12/17 23:40:14;;;;;;;9.83;6.63;;;-3.80;99.90;;;;;;5032141;28;20849;-62
2022/12/17 23:42:41;;;;;;;9.00;5.60;;;-3.90;99.90;;;;;;5040352;28;20473;-61
2022/12/17 23:45:10;;;;;;;9.00;6.07;;;-4.10;99.90;;;;;;5040609;28;20467;-60
2022/12/17 23:47:39;;;;;;;10.67;5.40;;;-4.10;99.90;;;;;;5040137;28;20476;-62
2022/12/17 23:50:09;;;;;;;10.73;6.47;;;-4.20;99.90;;;;;;5039996;28;20481;-62
2022/12/17 23:52:36;;;;;;;8.40;5.70;;;-4.10;99.90;;;;;;5040160;28;20592;-61
2022/12/17 23:55:04;;;;;;;10.10;6.37;;;-4.20;99.90;;;;;;5024940;28;20793;-61
2022/12/17 23:57:31;;;;;;;10.10;6.00;;;-4.20;99.90;;;;;;5020069;28;20467;-62
2022/12/17 23:59:58;;;;;;;10.97;6.70;;;-4.10;99.90;;;;;;5019887;28;20463;-63
